Time,TemperatureF,DewpointF,PressureIn,WindDirection,WindDirectionDegrees,WindSpeedMPH,WindSpeedGustMPH,Humidity,HourlyPrecipIn,Conditions,Clouds,dailyrainin,SoftwareType,DateUTC
2013-10-25 00:00:00,60.0,28.5,30.20,WNW,286,0.0,1.0,30,0.00,,---,0.00,VWS V14.00,2013-10-25 05:00:00,
2013-10-25 00:03:00,58.4,24.6,30.19,WNW,282,0.0,0.0,27,0.00,,---,0.00,VWS V14.00,2013-10-25 05:03:00,
2013-10-25 00:09:00,58.2,24.4,30.19,WNW,282,0.0,0.0,27,0.00,,---,0.00,VWS V14.00,2013-10-25 05:09:00,
2013-10-25 00:15:00,58.0,24.2,30.19,WNW,282,0.0,0.0,27,0.00,,---,0.00,VWS V14.00,2013-10-25 05:15:00,
2013-10-25 00:21:00,58.0,24.2,30.19,WNW,282,0.0,0.0,27,0.00,,---,0.00,VWS V14.00,2013-10-25 05:21:00,
2013-10-25 00:27:00,57.8,24.1,30.19,WNW,282,0.0,0.0,27,0.00,,---,0.00,VWS V14.00,2013-10-25 05:27:00,
2013-10-25 00:30:00,59.3,28.7,30.20,WNW,282,0.0,2.0,31,0.00,,---,0.00,VWS V14.00,2013-10-25 05:30:00,
2013-10-25 00:33:00,57.7,23.1,30.19,WNW,282,0.0,0.0,26,0.00,,---,0.00,VWS V14.00,2013-10-25 05:33:00,
2013-10-25 00:39:00,57.7,23.1,30.19,WNW,282,0.0,0.0,26,0.00,,---,0.00,VWS V14.00,2013-10-25 05:39:00,
2013-10-25 00:45:00,57.6,23.0,30.19,WNW,282,0.0,0.0,26,0.00,,---,0.00,VWS V14.00,2013-10-25 05:45:00,
2013-10-25 00:51:00,57.4,22.8,30.19,WNW,282,0.0,0.0,26,0.00,,---,0.00,VWS V14.00,2013-10-25 05:51:00,
2013-10-25 00:57:00,57.3,22.7,30.19,WNW,282,0.0,0.0,26,0.00,,---,0.00,VWS V14.00,2013-10-25 05:57:00,
2013-10-25 01:00:00,58.4,25.5,30.19,WNW,282,0.0,1.0,28,0.00,,---,0.00,VWS V14.00,2013-10-25 06:00:00,
2013-10-25 01:03:00,57.1,22.6,30.19,WNW,282,0.0,0.0,26,0.00,,---,0.00,VWS V14.00,2013-10-25 06:03:00,
2013-10-25 01:09:00,57.0,22.5,30.20,WNW,282,0.0,0.0,26,0.00,,---,0.00,VWS V14.00,2013-10-25 06:09:00,
2013-10-25 01:15:00,56.9,22.4,30.20,WNW,282,0.0,0.0,26,0.00,,---,0.00,VWS V14.00,2013-10-25 06:15:00,
2013-10-25 01:21:00,56.7,20.3,30.20,WNW,282,0.0,0.0,24,0.00,,---,0.00,VWS V14.00,2013-10-25 06:21:00,
2013-10-25 01:27:00,56.6,20.2,30.20,WNW,282,0.0,0.0,24,0.00,,---,0.00,VWS V14.00,2013-10-25 06:27:00,
2013-10-25 01:30:00,57.8,23.2,30.19,WNW,282,0.0,0.0,26,0.00,,---,0.00,VWS V14.00,2013-10-25 06:30:00,
2013-10-25 01:33:00,56.4,20.1,30.20,WNW,282,0.0,0.0,24,0.00,,---,0.00,VWS V14.00,2013-10-25 06:33:00,
2013-10-25 01:39:00,56.3,20.0,30.20,WNW,282,0.0,0.0,24,0.00,,---,0.00,VWS V14.00,2013-10-25 06:39:00,
2013-10-25 01:45:00,56.2,19.9,30.20,WNW,282,0.0,0.0,24,0.00,,---,0.00,VWS V14.00,2013-10-25 06:45:00,
2013-10-25 01:51:00,56.0,18.8,30.20,WNW,282,0.0,0.0,23,0.00,,---,0.00,VWS V14.00,2013-10-25 06:51:00,
2013-10-25 01:57:00,55.8,17.5,30.20,WNW,282,0.0,0.0,22,0.00,,---,0.00,VWS V14.00,2013-10-25 06:57:00,
2013-10-25 02:00:00,57.2,22.6,30.19,WNW,282,0.0,0.0,26,0.00,,---,0.00,VWS V14.00,2013-10-25 07:00:00,
2013-10-25 02:03:00,55.7,17.5,30.20,WNW,282,0.0,0.0,22,0.00,,---,0.00,VWS V14.00,2013-10-25 07:03:00,
2013-10-25 02:09:00,55.6,15.2,30.20,WNW,282,0.0,0.0,20,0.00,,---,0.00,VWS V14.00,2013-10-25 07:09:00,
2013-10-25 02:15:00,55.5,13.9,30.20,WNW,282,0.0,0.0,19,0.00,,---,0.00,VWS V14.00,2013-10-25 07:15:00,
2013-10-25 02:21:00,55.3,13.8,30.20,WNW,282,0.0,0.0,19,0.00,,---,0.00,VWS V14.00,2013-10-25 07:21:00,
2013-10-25 02:27:00,55.2,13.7,30.20,WNW,282,0.0,0.0,19,0.00,,---,0.00,VWS V14.00,2013-10-25 07:27:00,
2013-10-25 02:30:00,56.5,20.2,30.20,WNW,282,0.0,0.0,24,0.00,,---,0.00,VWS V14.00,2013-10-25 07:30:00,
2013-10-25 02:33:00,55.0,12.3,30.21,WNW,282,0.0,0.0,18,0.00,,---,0.00,VWS V14.00,2013-10-25 07:33:00,
2013-10-25 02:39:00,54.9,9.6,30.21,WNW,282,0.0,0.0,16,0.00,,---,0.00,VWS V14.00,2013-10-25 07:39:00,
2013-10-25 02:45:00,54.8,8.1,30.21,WNW,282,0.0,0.0,15,0.00,,---,0.00,VWS V14.00,2013-10-25 07:45:00,
2013-10-25 02:51:00,54.8,6.5,30.21,WNW,282,0.0,0.0,14,0.00,,---,0.00,VWS V14.00,2013-10-25 07:51:00,
2013-10-25 02:57:00,54.8,3.2,30.21,WNW,282,0.0,0.0,12,0.00,,---,0.00,VWS V14.00,2013-10-25 07:57:00,
2013-10-25 03:00:00,55.8,17.5,30.20,WNW,282,0.0,0.0,22,0.00,,---,0.00,VWS V14.00,2013-10-25 08:00:00,
2013-10-25 03:03:00,54.8,-0.7,30.21,WNW,282,0.0,0.0,10,0.00,,---,0.00,VWS V14.00,2013-10-25 08:03:00,
2013-10-25 03:09:00,54.9,-8.1,30.21,WNW,282,0.0,0.0,7,0.00,,---,0.00,VWS V14.00,2013-10-25 08:09:00,
2013-10-25 03:15:00,54.9,-11.2,30.22,WNW,282,0.0,0.0,6,0.00,,---,0.00,VWS V14.00,2013-10-25 08:15:00,
2013-10-25 03:21:00,54.9,-19.2,30.22,WNW,282,0.0,1.0,4,0.00,,---,0.00,VWS V14.00,2013-10-25 08:21:00,
2013-10-25 03:27:00,54.9,-24.6,30.22,WNW,282,0.0,1.0,3,0.00,,---,0.00,VWS V14.00,2013-10-25 08:27:00,
2013-10-25 03:30:00,55.1,12.4,30.21,WNW,282,0.0,0.0,18,0.00,,---,0.00,VWS V14.00,2013-10-25 08:30:00,
2013-10-25 03:33:00,55.0,-24.6,30.22,WNW,282,0.0,0.0,3,0.00,,---,0.00,VWS V14.00,2013-10-25 08:33:00,
2013-10-25 03:39:00,55.0,-32.0,30.22,WNW,282,0.0,1.0,2,0.00,,---,0.00,VWS V14.00,2013-10-25 08:39:00,
2013-10-25 03:45:00,55.0,-32.0,30.22,North,355,0.0,2.0,2,0.00,,---,0.00,VWS V14.00,2013-10-25 08:45:00,
2013-10-25 03:51:00,55.1,-31.9,30.22,North,355,0.0,1.0,2,0.00,,---,0.00,VWS V14.00,2013-10-25 08:51:00,
2013-10-25 03:57:00,55.1,-44.0,30.22,North,355,0.0,1.0,1,0.00,,---,0.00,VWS V14.00,2013-10-25 08:57:00,
2013-10-25 04:00:00,54.8,1.3,30.21,WNW,282,0.0,0.0,11,0.00,,---,0.00,VWS V14.00,2013-10-25 09:00:00,
2013-10-25 04:03:00,55.1,-31.9,30.22,North,355,0.0,0.0,2,0.00,,---,0.00,VWS V14.00,2013-10-25 09:03:00,
2013-10-25 04:10:00,55.0,-32.0,30.22,North,355,0.0,1.0,2,0.00,,---,0.00,VWS V14.00,2013-10-25 09:10:00,
2013-10-25 04:15:00,55.0,-32.0,30.22,NNW,348,0.0,2.0,2,0.00,,---,0.00,VWS V14.00,2013-10-25 09:15:00,
2013-10-25 04:22:00,55.0,-32.0,30.23,NNW,348,0.0,1.0,2,0.00,,---,0.00,VWS V14.00,2013-10-25 09:22:00,
2013-10-25 04:28:00,55.1,-31.9,30.23,North,355,0.0,2.0,2,0.00,,---,0.00,VWS V14.00,2013-10-25 09:28:00,
2013-10-25 04:30:00,55.0,-24.6,30.22,WNW,282,0.0,1.0,3,0.00,,---,0.00,VWS V14.00,2013-10-25 09:30:00,
2013-10-25 04:34:00,55.1,-31.9,30.23,North,5,1.0,2.0,2,0.00,,---,0.00,VWS V14.00,2013-10-25 09:34:00,
2013-10-25 04:40:00,55.3,-24.4,30.23,NW,321,2.0,5.0,3,0.00,,---,0.00,VWS V14.00,2013-10-25 09:40:00,
2013-10-25 04:45:00,55.4,-18.8,30.24,North,355,0.0,5.0,4,0.00,,---,0.00,VWS V14.00,2013-10-25 09:45:00,
2013-10-25 04:52:00,55.5,-10.7,30.24,NW,321,1.0,5.0,6,0.00,,---,0.00,VWS V14.00,2013-10-25 09:52:00,
2013-10-25 04:58:00,55.6,-4.8,30.24,North,355,4.0,6.0,8,0.00,,---,0.00,VWS V14.00,2013-10-25 09:58:00,
2013-10-25 05:00:00,55.1,-44.0,30.22,North,355,0.0,1.0,1,0.00,,---,0.00,VWS V14.00,2013-10-25 10:00:00,
2013-10-25 05:04:00,55.6,1.9,30.24,East,84,1.0,4.0,11,0.00,,---,0.00,VWS V14.00,2013-10-25 10:04:00,
2013-10-25 05:10:00,55.7,7.3,30.25,North,5,0.0,9.0,14,0.00,,---,0.00,VWS V14.00,2013-10-25 10:10:00,
2013-10-25 05:15:00,55.6,10.1,30.25,NW,321,2.0,9.0,16,0.00,,---,0.00,VWS V14.00,2013-10-25 10:15:00,
2013-10-25 05:22:00,55.6,14.0,30.25,North,5,1.0,7.0,19,0.00,,---,0.00,VWS V14.00,2013-10-25 10:22:00,
2013-10-25 05:28:00,55.6,15.2,30.25,West,269,2.0,8.0,20,0.00,,---,0.00,VWS V14.00,2013-10-25 10:28:00,
2013-10-25 05:30:00,55.1,-31.9,30.23,NNW,341,0.0,2.0,2,0.00,,---,0.00,VWS V14.00,2013-10-25 10:30:00,
2013-10-25 05:34:00,55.6,15.2,30.26,NE,35,0.0,4.0,20,0.00,,---,0.00,VWS V14.00,2013-10-25 10:34:00,
2013-10-25 05:40:00,55.6,15.2,30.26,North,349,0.0,5.0,20,0.00,,---,0.00,VWS V14.00,2013-10-25 10:40:00,
2013-10-25 05:45:00,55.5,16.2,30.26,NNE,27,2.0,10.0,21,0.00,,---,0.00,VWS V14.00,2013-10-25 10:45:00,
2013-10-25 05:52:00,55.6,18.4,30.27,North,360,1.0,9.0,23,0.00,,---,0.00,VWS V14.00,2013-10-25 10:52:00,
2013-10-25 05:58:00,55.5,20.3,30.27,NNE,17,0.0,10.0,25,0.00,,---,0.00,VWS V14.00,2013-10-25 10:58:00,
2013-10-25 06:00:00,55.6,-2.3,30.24,NNE,15,3.0,6.0,9,0.00,,---,0.00,VWS V14.00,2013-10-25 11:00:00,
2013-10-25 06:04:00,55.5,22.1,30.27,NW,315,1.0,14.0,27,0.00,,---,0.00,VWS V14.00,2013-10-25 11:04:00,
2013-10-25 06:10:00,55.4,23.7,30.27,ENE,66,6.0,14.0,29,0.00,,---,0.00,VWS V14.00,2013-10-25 11:10:00,
2013-10-25 06:15:00,55.3,24.4,30.28,North,360,4.0,14.0,30,0.00,,---,0.00,VWS V14.00,2013-10-25 11:15:00,
2013-10-25 06:22:00,55.2,24.3,30.28,NNW,340,1.0,7.0,30,0.00,,---,0.00,VWS V14.00,2013-10-25 11:22:00,
2013-10-25 06:28:00,55.0,24.2,30.28,North,355,2.0,7.0,30,0.00,,---,0.00,VWS V14.00,2013-10-25 11:28:00,
2013-10-25 06:30:00,55.6,15.2,30.25,North,355,0.0,8.0,20,0.00,,---,0.00,VWS V14.00,2013-10-25 11:30:00,
2013-10-25 06:34:00,54.8,24.8,30.28,East,89,1.0,10.0,31,0.00,,---,0.00,VWS V14.00,2013-10-25 11:34:00,
2013-10-25 06:40:00,54.7,24.7,30.29,North,355,2.0,11.0,31,0.00,,---,0.00,VWS V14.00,2013-10-25 11:40:00,
2013-10-25 06:45:00,54.5,24.5,30.29,NE,49,0.0,12.0,31,0.00,,---,0.00,VWS V14.00,2013-10-25 11:45:00,
2013-10-25 06:52:00,54.3,24.3,30.30,North,350,6.0,9.0,31,0.00,,---,0.00,VWS V14.00,2013-10-25 11:52:00,
2013-10-25 06:58:00,54.2,23.5,30.30,NE,34,0.0,9.0,30,0.00,,---,0.00,VWS V14.00,2013-10-25 11:58:00,
2013-10-25 07:00:00,55.5,21.2,30.27,North,355,1.0,10.0,26,0.00,,---,0.00,VWS V14.00,2013-10-25 12:00:00,
2013-10-25 07:04:00,54.0,22.5,30.30,North,5,2.0,6.0,29,0.00,,---,0.00,VWS V14.00,2013-10-25 12:04:00,
2013-10-25 07:10:00,53.9,20.7,30.30,NNE,23,5.0,7.0,27,0.00,,---,0.00,VWS V14.00,2013-10-25 12:10:00,
2013-10-25 07:15:00,53.7,19.6,30.31,NE,46,1.0,8.0,26,0.00,,---,0.00,VWS V14.00,2013-10-25 12:15:00,
2013-10-25 07:22:00,53.6,18.6,30.31,North,355,4.0,7.0,25,0.00,,---,0.00,VWS V14.00,2013-10-25 12:22:00,
2013-10-25 07:28:00,53.4,17.5,30.31,NE,49,1.0,8.0,24,0.00,,---,0.00,VWS V14.00,2013-10-25 12:28:00,
2013-10-25 07:30:00,54.9,24.1,30.28,NNW,346,5.0,7.0,30,0.00,,---,0.00,VWS V14.00,2013-10-25 12:30:00,
2013-10-25 07:34:00,53.3,16.5,30.32,NNW,346,2.0,9.0,23,0.00,,---,0.00,VWS V14.00,2013-10-25 12:34:00,
2013-10-25 07:40:00,53.3,16.5,30.32,NNE,32,0.0,9.0,23,0.00,,---,0.00,VWS V14.00,2013-10-25 12:40:00,
2013-10-25 07:45:00,53.2,16.4,30.32,North,355,1.0,9.0,23,0.00,,---,0.00,VWS V14.00,2013-10-25 12:45:00,
2013-10-25 07:52:00,53.3,17.5,30.33,North,5,1.0,9.0,24,0.00,,---,0.00,VWS V14.00,2013-10-25 12:52:00,
2013-10-25 07:58:00,53.2,19.2,30.33,ENE,77,2.0,10.0,26,0.00,,---,0.00,VWS V14.00,2013-10-25 12:58:00,
2013-10-25 08:00:00,54.2,22.6,30.30,East,84,6.0,9.0,29,0.00,,---,0.00,VWS V14.00,2013-10-25 13:00:00,
2013-10-25 08:04:00,53.3,21.0,30.33,North,5,5.0,9.0,28,0.00,,---,0.00,VWS V14.00,2013-10-25 13:04:00,
2013-10-25 08:10:00,53.3,23.5,30.33,NNE,12,4.0,9.0,31,0.00,,---,0.00,VWS V14.00,2013-10-25 13:10:00,
2013-10-25 08:15:00,53.3,24.2,30.33,NE,49,0.0,9.0,32,0.00,,---,0.00,VWS V14.00,2013-10-25 13:15:00,
2013-10-25 08:22:00,53.4,25.8,30.34,East,89,0.0,10.0,34,0.00,,---,0.00,VWS V14.00,2013-10-25 13:22:00,
2013-10-25 08:28:00,53.5,26.5,30.34,NW,321,2.0,10.0,35,0.00,,---,0.00,VWS V14.00,2013-10-25 13:28:00,
2013-10-25 08:30:00,53.4,17.5,30.32,North,355,8.0,8.0,24,0.00,,---,0.00,VWS V14.00,2013-10-25 13:30:00,
2013-10-25 08:34:00,53.7,27.4,30.34,East,90,1.0,8.0,36,0.00,,---,0.00,VWS V14.00,2013-10-25 13:34:00,
2013-10-25 08:40:00,53.8,30.1,30.34,NNE,23,1.0,9.0,40,0.00,,---,0.00,VWS V14.00,2013-10-25 13:40:00,
2013-10-25 08:45:00,53.2,16.4,30.32,North,355,1.0,9.0,23,0.00,,---,0.00,VWS V14.00,2013-10-25 13:45:00,
2013-10-25 08:46:00,54.0,30.2,30.34,North,11,0.0,5.0,40,0.00,,---,0.00,VWS V14.00,2013-10-25 13:46:00,
2013-10-25 08:52:00,54.2,31.6,30.35,North,360,1.0,12.0,42,0.00,,---,0.00,VWS V14.00,2013-10-25 13:52:00,
2013-10-25 08:58:00,54.5,33.0,30.35,NNE,23,1.0,12.0,44,0.00,,---,0.00,VWS V14.00,2013-10-25 13:58:00,
2013-10-25 09:00:00,53.2,19.2,30.33,NNW,346,6.0,10.0,26,0.00,,---,0.00,VWS V14.00,2013-10-25 14:00:00,
2013-10-25 09:04:00,54.7,33.8,30.35,NE,46,0.0,10.0,45,0.00,,---,0.00,VWS V14.00,2013-10-25 14:04:00,
2013-10-25 09:10:00,54.9,35.6,30.35,NNE,32,2.0,10.0,48,0.00,,---,0.00,VWS V14.00,2013-10-25 14:10:00,
2013-10-25 09:15:00,53.3,24.2,30.33,NE,49,0.0,9.0,32,0.00,,---,0.00,VWS V14.00,2013-10-25 14:15:00,
2013-10-25 09:16:00,55.1,36.3,30.35,ENE,76,0.0,4.0,49,0.00,,---,0.00,VWS V14.00,2013-10-25 14:16:00,
2013-10-25 09:22:00,55.4,36.6,30.35,ENE,65,0.0,13.0,49,0.00,,---,0.00,VWS V14.00,2013-10-25 14:22:00,
2013-10-25 09:28:00,55.7,37.9,30.35,NNE,25,1.0,13.0,51,0.00,,---,0.00,VWS V14.00,2013-10-25 14:28:00,
2013-10-25 09:30:00,53.5,26.5,30.34,NNW,348,7.0,10.0,35,0.00,,---,0.00,VWS V14.00,2013-10-25 14:30:00,
2013-10-25 09:34:00,56.0,38.6,30.35,North,360,1.0,14.0,52,0.00,,---,0.00,VWS V14.00,2013-10-25 14:34:00,
2013-10-25 09:40:00,56.3,38.9,30.35,North,9,5.0,14.0,52,0.00,,---,0.00,VWS V14.00,2013-10-25 14:40:00,
2013-10-25 09:45:00,53.9,30.1,30.34,ESE,103,4.0,9.0,40,0.00,,---,0.00,VWS V14.00,2013-10-25 14:45:00,
2013-10-25 09:46:00,56.6,39.2,30.35,NNW,346,4.0,6.0,52,0.00,,---,0.00,VWS V14.00,2013-10-25 14:46:00,
2013-10-25 09:52:00,56.9,40.9,30.35,NE,38,1.0,9.0,55,0.00,,---,0.00,VWS V14.00,2013-10-25 14:52:00,
2013-10-25 09:58:00,57.1,41.6,30.35,NE,45,1.0,11.0,56,0.00,,---,0.00,VWS V14.00,2013-10-25 14:58:00,
2013-10-25 10:00:00,54.6,32.6,30.35,North,9,5.0,12.0,43,0.00,,---,0.00,VWS V14.00,2013-10-25 15:00:00,
2013-10-25 10:04:00,57.4,41.8,30.35,NE,34,2.0,7.0,56,0.00,,---,0.00,VWS V14.00,2013-10-25 15:04:00,
2013-10-25 10:10:00,57.8,42.2,30.35,North,360,3.0,7.0,56,0.00,,---,0.00,VWS V14.00,2013-10-25 15:10:00,
2013-10-25 10:15:00,55.0,36.2,30.35,ESE,122,1.0,14.0,49,0.00,,---,0.00,VWS V14.00,2013-10-25 15:15:00,
2013-10-25 10:16:00,58.3,42.7,30.35,West,270,6.0,6.0,56,0.00,,---,0.00,VWS V14.00,2013-10-25 15:16:00,
2013-10-25 10:22:00,58.6,43.9,30.35,North,355,5.0,11.0,58,0.00,,---,0.00,VWS V14.00,2013-10-25 15:22:00,
2013-10-25 10:28:00,58.9,44.2,30.35,East,81,1.0,11.0,58,0.00,,---,0.00,VWS V14.00,2013-10-25 15:28:00,
2013-10-25 10:30:00,55.8,38.0,30.35,NNE,17,0.0,13.0,51,0.00,,---,0.00,VWS V14.00,2013-10-25 15:30:00,
2013-10-25 10:34:00,59.2,44.9,30.35,East,89,3.0,6.0,59,0.00,,---,0.00,VWS V14.00,2013-10-25 15:34:00,
2013-10-25 10:40:00,59.6,44.8,30.35,North,9,6.0,8.0,58,0.00,,---,0.00,VWS V14.00,2013-10-25 15:40:00,
2013-10-25 10:45:00,56.5,39.6,30.35,North,360,1.0,14.0,53,0.00,,---,0.00,VWS V14.00,2013-10-25 15:45:00,
2013-10-25 10:46:00,60.0,45.2,30.35,ENE,69,2.0,7.0,58,0.00,,---,0.00,VWS V14.00,2013-10-25 15:46:00,
2013-10-25 10:52:00,60.3,45.5,30.34,NE,43,4.0,9.0,58,0.00,,---,0.00,VWS V14.00,2013-10-25 15:52:00,
2013-10-25 10:58:00,60.6,46.2,30.34,NNW,342,2.0,10.0,59,0.00,,---,0.00,VWS V14.00,2013-10-25 15:58:00,
2013-10-25 11:00:00,57.2,41.7,30.35,NNE,27,4.0,11.0,56,0.00,,---,0.00,VWS V14.00,2013-10-25 16:00:00,
2013-10-25 11:05:00,61.0,46.6,30.34,North,351,6.0,8.0,59,0.00,,---,0.00,VWS V14.00,2013-10-25 16:05:00,
2013-10-25 11:11:00,61.4,47.0,30.34,ENE,64,2.0,9.0,59,0.00,,---,0.00,VWS V14.00,2013-10-25 16:11:00,
2013-10-25 11:15:00,58.1,42.0,30.35,SSE,150,5.0,12.0,55,0.00,,---,0.00,VWS V14.00,2013-10-25 16:15:00,
2013-10-25 11:17:00,61.8,47.3,30.34,WSW,253,0.0,7.0,59,0.00,,---,0.00,VWS V14.00,2013-10-25 16:17:00,
2013-10-25 11:23:00,62.1,47.6,30.34,North,351,4.0,10.0,59,0.00,,---,0.00,VWS V14.00,2013-10-25 16:23:00,
2013-10-25 11:29:00,62.5,47.5,30.34,NE,38,5.0,10.0,58,0.00,,---,0.00,VWS V14.00,2013-10-25 16:29:00,
2013-10-25 11:30:00,59.0,44.3,30.35,NNE,22,4.0,11.0,58,0.00,,---,0.00,VWS V14.00,2013-10-25 16:30:00,
2013-10-25 11:35:00,62.9,47.9,30.34,NNE,13,1.0,9.0,58,0.00,,---,0.00,VWS V14.00,2013-10-25 16:35:00,
2013-10-25 11:41:00,63.3,48.3,30.34,NNW,347,2.0,9.0,58,0.00,,---,0.00,VWS V14.00,2013-10-25 16:41:00,
2013-10-25 11:45:00,59.8,45.0,30.35,NW,313,3.0,10.0,58,0.00,,---,0.00,VWS V14.00,2013-10-25 16:45:00,
2013-10-25 11:47:00,63.7,48.7,30.34,ESE,103,4.0,9.0,58,0.00,,---,0.00,VWS V14.00,2013-10-25 16:47:00,
2013-10-25 11:53:00,63.8,48.3,30.34,East,89,1.0,9.0,57,0.00,,---,0.00,VWS V14.00,2013-10-25 16:53:00,
2013-10-25 11:59:00,63.9,48.4,30.33,East,94,0.0,9.0,57,0.00,,---,0.00,VWS V14.00,2013-10-25 16:59:00,
2013-10-25 12:00:00,60.7,46.3,30.34,ENE,78,0.0,10.0,59,0.00,,---,0.00,VWS V14.00,2013-10-25 17:00:00,
2013-10-25 12:05:00,64.0,48.5,30.33,NW,317,0.0,6.0,57,0.00,,---,0.00,VWS V14.00,2013-10-25 17:05:00,
2013-10-25 12:11:00,64.5,49.0,30.33,North,9,4.0,8.0,57,0.00,,---,0.00,VWS V14.00,2013-10-25 17:11:00,
2013-10-25 12:15:00,61.7,47.2,30.34,North,5,5.0,9.0,59,0.00,,---,0.00,VWS V14.00,2013-10-25 17:15:00,
2013-10-25 12:17:00,64.5,48.5,30.33,North,355,2.0,5.0,56,0.00,,---,0.00,VWS V14.00,2013-10-25 17:17:00,
2013-10-25 12:23:00,64.6,46.6,30.33,North,351,6.0,13.0,52,0.00,,---,0.00,VWS V14.00,2013-10-25 17:23:00,
2013-10-25 12:29:00,64.8,46.3,30.33,North,5,2.0,13.0,51,0.00,,---,0.00,VWS V14.00,2013-10-25 17:29:00,
2013-10-25 12:30:00,62.5,47.5,30.34,NNE,33,0.0,10.0,58,0.00,,---,0.00,VWS V14.00,2013-10-25 17:30:00,
2013-10-25 12:35:00,65.1,46.5,30.32,NW,307,5.0,8.0,51,0.00,,---,0.00,VWS V14.00,2013-10-25 17:35:00,
2013-10-25 12:41:00,65.1,46.5,30.32,ESE,111,2.0,8.0,51,0.00,,---,0.00,VWS V14.00,2013-10-25 17:41:00,
2013-10-25 12:45:00,63.6,48.1,30.34,NNE,32,0.0,9.0,57,0.00,,---,0.00,VWS V14.00,2013-10-25 17:45:00,
2013-10-25 12:47:00,65.3,46.2,30.31,NNE,24,4.0,7.0,50,0.00,,---,0.00,VWS V14.00,2013-10-25 17:47:00,
2013-10-25 12:53:00,65.4,44.7,30.31,East,90,0.0,10.0,47,0.00,,---,0.00,VWS V14.00,2013-10-25 17:53:00,
2013-10-25 12:59:00,65.7,45.5,30.30,ESE,110,4.0,10.0,48,0.00,,---,0.00,VWS V14.00,2013-10-25 17:59:00,
2013-10-25 13:00:00,64.0,48.5,30.33,East,98,0.0,9.0,57,0.00,,---,0.00,VWS V14.00,2013-10-25 18:00:00,
2013-10-25 13:05:00,65.8,46.7,30.30,ENE,71,4.0,6.0,50,0.00,,---,0.00,VWS V14.00,2013-10-25 18:05:00,
2013-10-25 13:11:00,65.7,46.6,30.30,East,93,1.0,8.0,50,0.00,,---,0.00,VWS V14.00,2013-10-25 18:11:00,
2013-10-25 13:15:00,64.4,48.4,30.33,North,11,4.0,9.0,56,0.00,,---,0.00,VWS V14.00,2013-10-25 18:15:00,
2013-10-25 13:17:00,66.0,47.4,30.30,North,355,0.0,1.0,51,0.00,,---,0.00,VWS V14.00,2013-10-25 18:17:00,
2013-10-25 13:23:00,66.2,46.0,30.29,SE,132,2.0,8.0,48,0.00,,---,0.00,VWS V14.00,2013-10-25 18:23:00,
2013-10-25 13:29:00,66.4,46.1,30.29,East,98,4.0,8.0,48,0.00,,---,0.00,VWS V14.00,2013-10-25 18:29:00,
2013-10-25 13:30:00,64.9,46.4,30.33,NW,322,2.0,13.0,51,0.00,,---,0.00,VWS V14.00,2013-10-25 18:30:00,
2013-10-25 13:35:00,66.3,46.0,30.29,NNW,341,4.0,6.0,48,0.00,,---,0.00,VWS V14.00,2013-10-25 18:35:00,
2013-10-25 13:41:00,66.6,45.2,30.29,NNE,12,2.0,7.0,46,0.00,,---,0.00,VWS V14.00,2013-10-25 18:41:00,
2013-10-25 13:45:00,65.2,45.6,30.32,ENE,67,0.0,10.0,49,0.00,,---,0.00,VWS V14.00,2013-10-25 18:45:00,
2013-10-25 13:47:00,66.6,44.6,30.28,NW,321,3.0,6.0,45,0.00,,---,0.00,VWS V14.00,2013-10-25 18:47:00,
2013-10-25 13:53:00,66.8,44.8,30.28,ENE,78,0.0,9.0,45,0.00,,---,0.00,VWS V14.00,2013-10-25 18:53:00,
2013-10-25 13:59:00,66.5,45.1,30.28,NE,40,0.0,9.0,46,0.00,,---,0.00,VWS V14.00,2013-10-25 18:59:00,
2013-10-25 14:00:00,65.7,46.0,30.30,NNE,22,0.0,10.0,49,0.00,,---,0.00,VWS V14.00,2013-10-25 19:00:00,
2013-10-25 14:05:00,66.6,45.2,30.27,ENE,70,4.0,7.0,46,0.00,,---,0.00,VWS V14.00,2013-10-25 19:05:00,
2013-10-25 14:11:00,66.5,43.9,30.27,North,360,6.0,8.0,44,0.00,,---,0.00,VWS V14.00,2013-10-25 19:11:00,
2013-10-25 14:15:00,65.7,46.6,30.30,ESE,104,0.0,8.0,50,0.00,,---,0.00,VWS V14.00,2013-10-25 19:15:00,
2013-10-25 14:17:00,66.8,44.8,30.27,NE,37,2.0,5.0,45,0.00,,---,0.00,VWS V14.00,2013-10-25 19:17:00,
2013-10-25 14:23:00,66.6,45.2,30.27,NNW,348,0.0,6.0,46,0.00,,---,0.00,VWS V14.00,2013-10-25 19:23:00,
2013-10-25 14:29:00,66.7,45.8,30.27,NW,305,2.0,6.0,47,0.00,,---,0.00,VWS V14.00,2013-10-25 19:29:00,
2013-10-25 14:30:00,66.3,46.0,30.29,WSW,238,2.0,8.0,48,0.00,,---,0.00,VWS V14.00,2013-10-25 19:30:00,
2013-10-25 14:35:00,66.8,43.6,30.27,East,92,3.0,8.0,43,0.00,,---,0.00,VWS V14.00,2013-10-25 19:35:00,
2013-10-25 14:41:00,66.8,42.4,30.27,NNW,340,5.0,10.0,41,0.00,,---,0.00,VWS V14.00,2013-10-25 19:41:00,
2013-10-25 14:45:00,66.3,44.3,30.28,NNE,30,1.0,9.0,45,0.00,,---,0.00,VWS V14.00,2013-10-25 19:45:00,
2013-10-25 14:47:00,66.8,41.7,30.27,North,351,1.0,7.0,40,0.00,,---,0.00,VWS V14.00,2013-10-25 19:47:00,
2013-10-25 14:53:00,66.9,41.8,30.26,East,95,4.0,8.0,40,0.00,,---,0.00,VWS V14.00,2013-10-25 19:53:00,
2013-10-25 14:59:00,66.8,41.7,30.26,NE,40,1.0,10.0,40,0.00,,---,0.00,VWS V14.00,2013-10-25 19:59:00,
2013-10-25 15:00:00,66.6,45.2,30.28,NNE,23,0.0,9.0,46,0.00,,---,0.00,VWS V14.00,2013-10-25 20:00:00,
2013-10-25 15:05:00,66.9,41.8,30.26,North,355,4.0,10.0,40,0.00,,---,0.00,VWS V14.00,2013-10-25 20:05:00,
2013-10-25 15:11:00,67.1,42.6,30.26,NNE,13,2.0,10.0,41,0.00,,---,0.00,VWS V14.00,2013-10-25 20:11:00,
2013-10-25 15:15:00,66.8,44.8,30.27,NNW,327,2.0,9.0,45,0.00,,---,0.00,VWS V14.00,2013-10-25 20:15:00,
2013-10-25 15:17:00,67.2,42.1,30.26,North,355,2.0,4.0,40,0.00,,---,0.00,VWS V14.00,2013-10-25 20:17:00,
2013-10-25 15:23:00,67.0,42.5,30.26,NW,322,10.0,10.0,41,0.00,,---,0.00,VWS V14.00,2013-10-25 20:23:00,
2013-10-25 15:29:00,66.8,42.4,30.26,NE,45,1.0,10.0,41,0.00,,---,0.00,VWS V14.00,2013-10-25 20:29:00,
2013-10-25 15:30:00,67.0,44.4,30.27,WNW,292,5.0,6.0,44,0.00,,---,0.00,VWS V14.00,2013-10-25 20:30:00,
2013-10-25 15:35:00,66.8,43.0,30.26,North,350,3.0,5.0,42,0.00,,---,0.00,VWS V14.00,2013-10-25 20:35:00,
2013-10-25 15:41:00,67.1,42.6,30.26,North,11,4.0,7.0,41,0.00,,---,0.00,VWS V14.00,2013-10-25 20:41:00,
2013-10-25 15:45:00,66.9,42.5,30.26,NE,34,0.0,10.0,41,0.00,,---,0.00,VWS V14.00,2013-10-25 20:45:00,
2013-10-25 15:47:00,66.7,41.0,30.26,WNW,302,0.0,7.0,39,0.00,,---,0.00,VWS V14.00,2013-10-25 20:47:00,
2013-10-25 15:53:00,67.0,40.6,30.26,North,10,2.0,9.0,38,0.00,,---,0.00,VWS V14.00,2013-10-25 20:53:00,
2013-10-25 15:59:00,66.7,41.6,30.26,NNE,12,5.0,9.0,40,0.00,,---,0.00,VWS V14.00,2013-10-25 20:59:00,
2013-10-25 16:00:00,66.8,41.7,30.26,East,84,2.0,10.0,40,0.00,,---,0.00,VWS V14.00,2013-10-25 21:00:00,
2013-10-25 16:05:00,66.6,42.8,30.26,NNW,340,2.0,6.0,42,0.00,,---,0.00,VWS V14.00,2013-10-25 21:05:00,
2013-10-25 16:11:00,66.5,42.1,30.26,East,97,0.0,7.0,41,0.00,,---,0.00,VWS V14.00,2013-10-25 21:11:00,
2013-10-25 16:15:00,67.2,42.1,30.26,NE,39,1.0,10.0,40,0.00,,---,0.00,VWS V14.00,2013-10-25 21:15:00,
2013-10-25 16:17:00,66.5,40.8,30.26,North,355,7.0,7.0,39,0.00,,---,0.00,VWS V14.00,2013-10-25 21:17:00,
2013-10-25 16:23:00,66.2,40.5,30.26,NNW,330,2.0,11.0,39,0.00,,---,0.00,VWS V14.00,2013-10-25 21:23:00,
2013-10-25 16:29:00,66.1,39.8,30.26,North,5,5.0,11.0,38,0.00,,---,0.00,VWS V14.00,2013-10-25 21:29:00,
2013-10-25 16:30:00,66.8,42.4,30.26,West,270,0.0,10.0,41,0.00,,---,0.00,VWS V14.00,2013-10-25 21:30:00,
2013-10-25 16:35:00,66.0,40.4,30.26,NNW,332,0.0,7.0,39,0.00,,---,0.00,VWS V14.00,2013-10-25 21:35:00,
2013-10-25 16:41:00,66.0,40.4,30.26,North,355,3.0,7.0,39,0.00,,---,0.00,VWS V14.00,2013-10-25 21:41:00,
2013-10-25 16:45:00,66.8,41.1,30.26,NNW,340,3.0,7.0,39,0.00,,---,0.00,VWS V14.00,2013-10-25 21:45:00,
2013-10-25 16:47:00,65.8,42.1,30.26,NNW,346,1.0,6.0,42,0.00,,---,0.00,VWS V14.00,2013-10-25 21:47:00,
2013-10-25 16:53:00,65.8,42.7,30.26,NW,308,0.0,6.0,43,0.00,,---,0.00,VWS V14.00,2013-10-25 21:53:00,
2013-10-25 16:59:00,65.4,40.5,30.26,NNE,13,1.0,10.0,40,0.00,,---,0.00,VWS V14.00,2013-10-25 21:59:00,
2013-10-25 17:00:00,66.7,41.6,30.26,NNW,346,1.0,9.0,40,0.00,,---,0.00,VWS V14.00,2013-10-25 22:00:00,
2013-10-25 17:05:00,65.2,42.2,30.25,North,11,0.0,4.0,43,0.00,,---,0.00,VWS V14.00,2013-10-25 22:05:00,
2013-10-25 17:11:00,65.1,42.1,30.25,NNW,328,0.0,8.0,43,0.00,,---,0.00,VWS V14.00,2013-10-25 22:11:00,
2013-10-25 17:15:00,66.5,40.8,30.26,North,355,5.0,7.0,39,0.00,,---,0.00,VWS V14.00,2013-10-25 22:15:00,
2013-10-25 17:17:00,64.8,41.8,30.25,East,83,2.0,7.0,43,0.00,,---,0.00,VWS V14.00,2013-10-25 22:17:00,
2013-10-25 17:23:00,64.5,42.1,30.25,North,355,0.0,9.0,44,0.00,,---,0.00,VWS V14.00,2013-10-25 22:23:00,
2013-10-25 17:29:00,64.1,41.8,30.26,WNW,302,0.0,9.0,44,0.00,,---,0.00,VWS V14.00,2013-10-25 22:29:00,
2013-10-25 17:30:00,66.1,39.8,30.26,NNW,344,5.0,11.0,38,0.00,,---,0.00,VWS V14.00,2013-10-25 22:30:00,
2013-10-25 17:35:00,63.8,42.6,30.26,North,355,1.0,4.0,46,0.00,,---,0.00,VWS V14.00,2013-10-25 22:35:00,
2013-10-25 17:41:00,63.6,43.0,30.26,ESE,110,1.0,5.0,47,0.00,,---,0.00,VWS V14.00,2013-10-25 22:41:00,
2013-10-25 17:45:00,65.8,41.5,30.26,NNW,346,1.0,7.0,41,0.00,,---,0.00,VWS V14.00,2013-10-25 22:45:00,
2013-10-25 17:48:00,63.3,42.8,30.26,NW,322,0.0,2.0,47,0.00,,---,0.00,VWS V14.00,2013-10-25 22:48:00,
2013-10-25 17:54:00,63.0,41.9,30.27,NW,313,1.0,6.0,46,0.00,,---,0.00,VWS V14.00,2013-10-25 22:54:00,
2013-10-25 18:00:00,62.6,39.8,30.27,NNW,346,0.0,6.0,43,0.00,,---,0.00,VWS V14.00,2013-10-25 23:00:00,
2013-10-25 18:06:00,62.3,39.5,30.27,NNE,20,3.0,7.0,43,0.00,,---,0.00,VWS V14.00,2013-10-25 23:06:00,
2013-10-25 18:12:00,62.1,39.4,30.27,North,5,1.0,7.0,43,0.00,,---,0.00,VWS V14.00,2013-10-25 23:12:00,
2013-10-25 18:15:00,64.9,41.9,30.25,NW,317,1.0,8.0,43,0.00,,---,0.00,VWS V14.00,2013-10-25 23:15:00,
2013-10-25 18:18:00,61.7,39.6,30.27,NW,304,0.0,2.0,44,0.00,,---,0.00,VWS V14.00,2013-10-25 23:18:00,
2013-10-25 18:24:00,61.5,40.0,30.27,NNW,341,0.0,2.0,45,0.00,,---,0.00,VWS V14.00,2013-10-25 23:24:00,
2013-10-25 18:30:00,61.2,40.8,30.28,North,355,0.0,2.0,47,0.00,,---,0.00,VWS V14.00,2013-10-25 23:30:00,
2013-10-25 18:36:00,60.9,40.5,30.27,North,351,0.0,4.0,47,0.00,,---,0.00,VWS V14.00,2013-10-25 23:36:00,
2013-10-25 18:42:00,60.5,40.2,30.28,NNW,344,0.0,4.0,47,0.00,,---,0.00,VWS V14.00,2013-10-25 23:42:00,
2013-10-25 18:45:00,63.4,42.3,30.26,NNW,333,0.0,6.0,46,0.00,,---,0.00,VWS V14.00,2013-10-25 23:45:00,
2013-10-25 18:48:00,60.2,40.5,30.28,NNW,336,0.0,2.0,48,0.00,,---,0.00,VWS V14.00,2013-10-25 23:48:00,
2013-10-25 18:54:00,59.9,40.2,30.28,NE,54,1.0,3.0,48,0.00,,---,0.00,VWS V14.00,2013-10-25 23:54:00,
2013-10-25 19:00:00,59.6,39.9,30.28,North,355,1.0,5.0,48,0.00,,---,0.00,VWS V14.00,2013-10-26 00:00:00,
2013-10-25 19:06:00,59.5,40.9,30.28,North,355,0.0,2.0,50,0.00,,---,0.00,VWS V14.00,2013-10-26 00:06:00,
2013-10-25 19:12:00,59.3,41.2,30.28,WNW,301,0.0,4.0,51,0.00,,---,0.00,VWS V14.00,2013-10-26 00:12:00,
2013-10-25 19:15:00,61.9,39.8,30.27,NNE,15,0.0,7.0,44,0.00,,---,0.00,VWS V14.00,2013-10-26 00:15:00,
2013-10-25 19:18:00,59.0,40.9,30.28,NW,304,4.0,4.0,51,0.00,,---,0.00,VWS V14.00,2013-10-26 00:18:00,
2013-10-25 19:24:00,58.8,40.7,30.29,NNW,342,1.0,4.0,51,0.00,,---,0.00,VWS V14.00,2013-10-26 00:24:00,
2013-10-25 19:30:00,58.6,40.5,30.29,NE,43,0.0,5.0,51,0.00,,---,0.00,VWS V14.00,2013-10-26 00:30:00,
2013-10-25 19:36:00,58.4,40.4,30.29,North,360,1.0,4.0,51,0.00,,---,0.00,VWS V14.00,2013-10-26 00:36:00,
2013-10-25 19:42:00,58.2,40.2,30.29,NNW,340,0.0,4.0,51,0.00,,---,0.00,VWS V14.00,2013-10-26 00:42:00,
2013-10-25 19:45:00,60.3,40.0,30.28,NNW,348,2.0,6.0,47,0.00,,---,0.00,VWS V14.00,2013-10-26 00:45:00,
2013-10-25 19:48:00,58.0,40.0,30.30,NE,49,0.0,1.0,51,0.00,,---,0.00,VWS V14.00,2013-10-26 00:48:00,
2013-10-25 19:54:00,57.8,39.8,30.30,NW,315,0.0,2.0,51,0.00,,---,0.00,VWS V14.00,2013-10-26 00:54:00,
2013-10-25 20:00:00,57.7,40.2,30.30,NW,313,0.0,5.0,52,0.00,,---,0.00,VWS V14.00,2013-10-26 01:00:00,
2013-10-25 20:06:00,57.4,39.9,30.30,NNW,347,0.0,2.0,52,0.00,,---,0.00,VWS V14.00,2013-10-26 01:06:00,
2013-10-25 20:12:00,57.3,40.3,30.30,NNW,340,0.0,4.0,53,0.00,,---,0.00,VWS V14.00,2013-10-26 01:12:00,
2013-10-25 20:15:00,59.1,41.0,30.28,WNW,292,0.0,4.0,51,0.00,,---,0.00,VWS V14.00,2013-10-26 01:15:00,
2013-10-25 20:18:00,57.2,40.2,30.30,North,355,0.0,1.0,53,0.00,,---,0.00,VWS V14.00,2013-10-26 01:18:00,
2013-10-25 20:24:00,57.1,40.2,30.30,NNW,340,0.0,2.0,53,0.00,,---,0.00,VWS V14.00,2013-10-26 01:24:00,
2013-10-25 20:30:00,56.9,40.0,30.30,ESE,115,0.0,4.0,53,0.00,,---,0.00,VWS V14.00,2013-10-26 01:30:00,
2013-10-25 20:36:00,56.8,39.9,30.31,North,5,0.0,4.0,53,0.00,,---,0.00,VWS V14.00,2013-10-26 01:36:00,
2013-10-25 20:42:00,56.7,39.8,30.30,NE,47,0.0,6.0,53,0.00,,---,0.00,VWS V14.00,2013-10-26 01:42:00,
2013-10-25 20:45:00,58.1,40.1,30.29,NE,49,0.0,4.0,51,0.00,,---,0.00,VWS V14.00,2013-10-26 01:45:00,
2013-10-25 20:48:00,56.5,39.6,30.30,North,355,1.0,3.0,53,0.00,,---,0.00,VWS V14.00,2013-10-26 01:48:00,
2013-10-25 20:54:00,56.3,39.9,30.31,NNE,28,0.0,3.0,54,0.00,,---,0.00,VWS V14.00,2013-10-26 01:54:00,
2013-10-25 21:00:00,56.1,39.7,30.31,NE,39,0.0,3.0,54,0.00,,---,0.00,VWS V14.00,2013-10-26 02:00:00,
2013-10-25 21:06:00,55.9,40.0,30.31,ESE,105,0.0,4.0,55,0.00,,---,0.00,VWS V14.00,2013-10-26 02:06:00,
2013-10-25 21:12:00,55.6,39.2,30.31,ESE,102,0.0,4.0,54,0.00,,---,0.00,VWS V14.00,2013-10-26 02:12:00,
2013-10-25 21:15:00,57.3,40.3,30.30,NW,306,1.0,4.0,53,0.00,,---,0.00,VWS V14.00,2013-10-26 02:15:00,
2013-10-25 21:18:00,55.4,39.0,30.32,NE,52,0.0,6.0,54,0.00,,---,0.00,VWS V14.00,2013-10-26 02:18:00,
2013-10-25 21:24:00,55.1,38.8,30.32,NNW,344,2.0,6.0,54,0.00,,---,0.00,VWS V14.00,2013-10-26 02:24:00,
2013-10-25 21:30:00,55.0,38.7,30.32,East,96,0.0,6.0,54,0.00,,---,0.00,VWS V14.00,2013-10-26 02:30:00,
2013-10-25 21:36:00,54.8,38.5,30.32,ENE,65,0.0,4.0,54,0.00,,---,0.00,VWS V14.00,2013-10-26 02:36:00,
2013-10-25 21:42:00,54.6,38.3,30.32,North,360,0.0,5.0,54,0.00,,---,0.00,VWS V14.00,2013-10-26 02:42:00,
2013-10-25 21:45:00,56.6,39.7,30.30,NNW,327,0.0,6.0,53,0.00,,---,0.00,VWS V14.00,2013-10-26 02:45:00,
2013-10-25 21:48:00,54.5,38.2,30.32,NNW,347,1.0,3.0,54,0.00,,---,0.00,VWS V14.00,2013-10-26 02:48:00,
2013-10-25 21:54:00,54.4,38.1,30.32,North,350,0.0,3.0,54,0.00,,---,0.00,VWS V14.00,2013-10-26 02:54:00,
2013-10-25 22:00:00,54.2,38.4,30.33,NE,36,1.0,5.0,55,0.00,,---,0.00,VWS V14.00,2013-10-26 03:00:00,
2013-10-25 22:06:00,54.1,38.3,30.32,NNW,342,0.0,4.0,55,0.00,,---,0.00,VWS V14.00,2013-10-26 03:06:00,
2013-10-25 22:12:00,54.0,38.7,30.33,East,98,4.0,5.0,56,0.00,,---,0.00,VWS V14.00,2013-10-26 03:12:00,
2013-10-25 22:15:00,55.5,39.1,30.31,North,355,0.0,4.0,54,0.00,,---,0.00,VWS V14.00,2013-10-26 03:15:00,
2013-10-25 22:18:00,53.8,38.5,30.33,WNW,294,0.0,6.0,56,0.00,,---,0.00,VWS V14.00,2013-10-26 03:18:00,
2013-10-25 22:24:00,53.6,38.3,30.33,NNW,342,0.0,6.0,56,0.00,,---,0.00,VWS V14.00,2013-10-26 03:24:00,
2013-10-25 22:30:00,53.4,38.6,30.33,NNE,15,0.0,6.0,57,0.00,,---,0.00,VWS V14.00,2013-10-26 03:30:00,
2013-10-25 22:36:00,53.3,38.5,30.32,North,360,3.0,5.0,57,0.00,,---,0.00,VWS V14.00,2013-10-26 03:36:00,
2013-10-25 22:42:00,53.2,38.4,30.32,East,100,0.0,5.0,57,0.00,,---,0.00,VWS V14.00,2013-10-26 03:42:00,
2013-10-25 22:45:00,54.5,38.2,30.32,ENE,75,2.0,6.0,54,0.00,,---,0.00,VWS V14.00,2013-10-26 03:45:00,
2013-10-25 22:48:00,53.0,38.2,30.32,North,350,4.0,5.0,57,0.00,,---,0.00,VWS V14.00,2013-10-26 03:48:00,
2013-10-25 22:54:00,52.9,38.5,30.32,NNE,22,0.0,5.0,58,0.00,,---,0.00,VWS V14.00,2013-10-26 03:54:00,
2013-10-25 23:00:00,52.8,38.0,30.32,NNE,26,0.0,5.0,57,0.00,,---,0.00,VWS V14.00,2013-10-26 04:00:00,
2013-10-25 23:06:00,52.6,37.8,30.32,ENE,71,0.0,5.0,57,0.00,,---,0.00,VWS V14.00,2013-10-26 04:06:00,
2013-10-25 23:12:00,52.5,37.7,30.32,ENE,64,0.0,5.0,57,0.00,,---,0.00,VWS V14.00,2013-10-26 04:12:00,
2013-10-25 23:15:00,52.4,37.6,30.32,North,5,0.0,5.0,57,0.00,,---,0.00,VWS V14.00,2013-10-26 04:15:00,
2013-10-25 23:18:00,52.3,37.1,30.31,ESE,111,0.0,2.0,56,0.00,,---,0.00,VWS V14.00,2013-10-26 04:18:00,
2013-10-25 23:24:00,52.2,37.0,30.31,NNW,345,0.0,3.0,56,0.00,,---,0.00,VWS V14.00,2013-10-26 04:24:00,
2013-10-25 23:30:00,52.0,36.8,30.31,NNE,22,0.0,4.0,56,0.00,,---,0.00,VWS V14.00,2013-10-26 04:30:00,
2013-10-25 23:36:00,51.9,37.2,30.31,NW,317,0.0,4.0,57,0.00,,---,0.00,VWS V14.00,2013-10-26 04:36:00,
2013-10-25 23:42:00,51.8,37.5,30.31,North,355,0.0,5.0,58,0.00,,---,0.00,VWS V14.00,2013-10-26 04:42:00,
2013-10-25 23:45:00,53.1,38.3,30.32,North,355,2.0,5.0,57,0.00,,---,0.00,VWS V14.00,2013-10-26 04:45:00,
2013-10-25 23:48:00,51.7,37.8,30.30,NE,34,1.0,5.0,59,0.00,,---,0.00,VWS V14.00,2013-10-26 04:48:00,
2013-10-25 23:55:00,51.6,37.3,30.30,NE,44,2.0,6.0,58,0.00,,---,0.00,VWS V14.00,2013-10-26 04:55:00,